Terminal Aerodrome Forecast
Issued by NWS Omaha/Valley, NE

Home | Current Version | Previous Version | Text Only | Print | Product List | Glossary Off
Versions: 1 2 3 4 5 6 7 8 9 10 11 12 13 14 15 16 17

000
FTUS43 KOAX 140520
TAFOFK
TAF
KOFK 140520Z 1406/1506 VRB04KT P6SM SCT120 BKN200
     FM141500 VRB05KT P6SM BKN120
     FM150000 VRB03KT P6SM BKN200=

USA.gov is the U.S. government's official web portal to all federal, state and local government web resources and services.